sensor_id;sensor_type;location;lat;lon;timestamp;P1;durP1;ratioP1;P2;durP2;ratioP2
37895;SDS011;23733;53.254;10.430;2023-02-28T00:00:34;7.13;;;4.40;;
37895;SDS011;23733;53.254;10.430;2023-02-28T00:03:02;9.20;;;4.90;;
37895;SDS011;23733;53.254;10.430;2023-02-28T00:05:28;9.57;;;4.70;;
37895;SDS011;23733;53.254;10.430;2023-02-28T00:07:55;11.87;;;4.90;;
37895;SDS011;23733;53.254;10.430;2023-02-28T00:10:22;10.07;;;4.60;;
37895;SDS011;23733;53.254;10.430;2023-02-28T00:12:50;6.67;;;4.13;;
37895;SDS011;23733;53.254;10.430;2023-02-28T00:15:17;8.87;;;4.73;;
37895;SDS011;23733;53.254;10.430;2023-02-28T00:17:43;8.60;;;4.83;;
37895;SDS011;23733;53.254;10.430;2023-02-28T00:20:10;10.10;;;4.90;;
37895;SDS011;23733;53.254;10.430;2023-02-28T00:22:41;7.23;;;4.63;;
37895;SDS011;23733;53.254;10.430;2023-02-28T00:25:10;9.27;;;4.70;;
37895;SDS011;23733;53.254;10.430;2023-02-28T00:27:38;6.90;;;4.13;;
37895;SDS011;23733;53.254;10.430;2023-02-28T00:30:05;8.80;;;4.33;;
37895;SDS011;23733;53.254;10.430;2023-02-28T00:32:37;9.43;;;4.77;;
37895;SDS011;23733;53.254;10.430;2023-02-28T00:35:04;7.17;;;4.23;;
37895;SDS011;23733;53.254;10.430;2023-02-28T00:37:31;10.07;;;4.83;;
37895;SDS011;23733;53.254;10.430;2023-02-28T00:39:57;10.03;;;4.50;;
37895;SDS011;23733;53.254;10.430;2023-02-28T00:42:23;7.63;;;4.33;;
37895;SDS011;23733;53.254;10.430;2023-02-28T00:44:50;10.30;;;5.07;;
37895;SDS011;23733;53.254;10.430;2023-02-28T00:47:16;8.87;;;4.70;;
37895;SDS011;23733;53.254;10.430;2023-02-28T00:49:42;9.73;;;4.60;;
37895;SDS011;23733;53.254;10.430;2023-02-28T00:52:08;10.53;;;4.33;;
37895;SDS011;23733;53.254;10.430;2023-02-28T00:54:35;8.17;;;4.03;;
37895;SDS011;23733;53.254;10.430;2023-02-28T00:57:01;8.57;;;4.83;;
37895;SDS011;23733;53.254;10.430;2023-02-28T00:59:29;9.77;;;4.73;;
37895;SDS011;23733;53.254;10.430;2023-02-28T01:01:55;6.63;;;3.97;;
37895;SDS011;23733;53.254;10.430;2023-02-28T01:04:24;10.90;;;5.50;;
37895;SDS011;23733;53.254;10.430;2023-02-28T01:06:50;11.63;;;6.20;;
37895;SDS011;23733;53.254;10.430;2023-02-28T01:09:17;13.00;;;5.20;;
37895;SDS011;23733;53.254;10.430;2023-02-28T01:11:44;10.27;;;4.50;;
37895;SDS011;23733;53.254;10.430;2023-02-28T01:14:12;8.83;;;4.90;;
37895;SDS011;23733;53.254;10.430;2023-02-28T01:16:39;8.97;;;4.70;;
37895;SDS011;23733;53.254;10.430;2023-02-28T01:19:08;12.00;;;7.03;;
37895;SDS011;23733;53.254;10.430;2023-02-28T01:21:34;10.60;;;6.43;;
37895;SDS011;23733;53.254;10.430;2023-02-28T01:24:02;13.23;;;6.40;;
37895;SDS011;23733;53.254;10.430;2023-02-28T01:26:29;10.30;;;5.33;;
37895;SDS011;23733;53.254;10.430;2023-02-28T01:28:55;11.47;;;4.60;;
37895;SDS011;23733;53.254;10.430;2023-02-28T01:31:21;14.07;;;5.93;;
37895;SDS011;23733;53.254;10.430;2023-02-28T01:33:48;11.00;;;5.17;;
37895;SDS011;23733;53.254;10.430;2023-02-28T01:36:19;9.13;;;4.43;;
37895;SDS011;23733;53.254;10.430;2023-02-28T01:38:46;10.03;;;5.27;;
37895;SDS011;23733;53.254;10.430;2023-02-28T01:41:14;11.37;;;5.50;;
37895;SDS011;23733;53.254;10.430;2023-02-28T01:46:14;9.63;;;4.73;;
37895;SDS011;23733;53.254;10.430;2023-02-28T01:48:44;9.33;;;4.83;;
37895;SDS011;23733;53.254;10.430;2023-02-28T01:51:18;9.57;;;4.70;;
37895;SDS011;23733;53.254;10.430;2023-02-28T01:53:49;10.07;;;4.83;;
37895;SDS011;23733;53.254;10.430;2023-02-28T01:56:19;9.70;;;5.00;;
37895;SDS011;23733;53.254;10.430;2023-02-28T01:58:49;10.57;;;5.40;;
37895;SDS011;23733;53.254;10.430;2023-02-28T02:01:17;12.27;;;5.10;;
37895;SDS011;23733;53.254;10.430;2023-02-28T02:03:51;8.83;;;4.80;;
37895;SDS011;23733;53.254;10.430;2023-02-28T02:06:29;12.17;;;4.90;;
37895;SDS011;23733;53.254;10.430;2023-02-28T02:09:03;8.10;;;4.33;;
37895;SDS011;23733;53.254;10.430;2023-02-28T02:11:29;10.30;;;4.77;;
37895;SDS011;23733;53.254;10.430;2023-02-28T02:14:03;9.37;;;5.00;;
37895;SDS011;23733;53.254;10.430;2023-02-28T02:19:30;10.10;;;4.70;;
37895;SDS011;23733;53.254;10.430;2023-02-28T02:22:09;10.10;;;4.77;;
37895;SDS011;23733;53.254;10.430;2023-02-28T02:30:58;8.57;;;4.23;;
37895;SDS011;23733;53.254;10.430;2023-02-28T02:33:47;9.97;;;4.27;;
37895;SDS011;23733;53.254;10.430;2023-02-28T02:36:45;8.13;;;4.03;;
37895;SDS011;23733;53.254;10.430;2023-02-28T02:39:36;7.47;;;3.93;;
37895;SDS011;23733;53.254;10.430;2023-02-28T02:42:51;9.27;;;4.40;;
37895;SDS011;23733;53.254;10.430;2023-02-28T02:45:25;6.87;;;3.73;;
37895;SDS011;23733;53.254;10.430;2023-02-28T02:48:10;10.20;;;4.47;;
37895;SDS011;23733;53.254;10.430;2023-02-28T02:50:45;8.27;;;4.50;;
37895;SDS011;23733;53.254;10.430;2023-02-28T02:53:17;11.50;;;4.70;;
37895;SDS011;23733;53.254;10.430;2023-02-28T02:55:47;12.00;;;4.80;;
37895;SDS011;23733;53.254;10.430;2023-02-28T02:58:21;11.07;;;4.30;;
37895;SDS011;23733;53.254;10.430;2023-02-28T03:00:52;7.40;;;3.67;;
37895;SDS011;23733;53.254;10.430;2023-02-28T03:03:22;9.03;;;4.20;;
37895;SDS011;23733;53.254;10.430;2023-02-28T03:05:56;7.23;;;3.90;;
37895;SDS011;23733;53.254;10.430;2023-02-28T03:08:23;7.03;;;3.90;;
37895;SDS011;23733;53.254;10.430;2023-02-28T03:10:59;7.73;;;4.23;;
37895;SDS011;23733;53.254;10.430;2023-02-28T03:16:58;7.53;;;3.97;;
37895;SDS011;23733;53.254;10.430;2023-02-28T03:19:49;10.80;;;3.90;;
37895;SDS011;23733;53.254;10.430;2023-02-28T03:22:32;7.17;;;3.80;;
37895;SDS011;23733;53.254;10.430;2023-02-28T03:25:20;7.07;;;4.00;;
37895;SDS011;23733;53.254;10.430;2023-02-28T03:33:31;7.27;;;3.87;;
37895;SDS011;23733;53.254;10.430;2023-02-28T03:36:06;8.23;;;3.87;;
37895;SDS011;23733;53.254;10.430;2023-02-28T03:38:41;6.13;;;3.63;;
37895;SDS011;23733;53.254;10.430;2023-02-28T03:41:15;9.37;;;4.10;;
37895;SDS011;23733;53.254;10.430;2023-02-28T03:43:49;11.10;;;4.27;;
37895;SDS011;23733;53.254;10.430;2023-02-28T03:46:20;6.73;;;4.13;;
37895;SDS011;23733;53.254;10.430;2023-02-28T03:49:02;6.90;;;3.57;;
37895;SDS011;23733;53.254;10.430;2023-02-28T03:51:34;8.40;;;3.70;;
37895;SDS011;23733;53.254;10.430;2023-02-28T03:54:03;6.20;;;4.00;;
37895;SDS011;23733;53.254;10.430;2023-02-28T03:56:54;10.70;;;4.00;;
37895;SDS011;23733;53.254;10.430;2023-02-28T03:59:28;8.10;;;3.50;;
37895;SDS011;23733;53.254;10.430;2023-02-28T04:02:02;7.20;;;4.07;;
37895;SDS011;23733;53.254;10.430;2023-02-28T04:04:31;6.90;;;3.40;;
37895;SDS011;23733;53.254;10.430;2023-02-28T04:07:03;6.33;;;3.47;;
37895;SDS011;23733;53.254;10.430;2023-02-28T04:09:36;8.13;;;3.70;;
37895;SDS011;23733;53.254;10.430;2023-02-28T04:12:02;7.37;;;3.70;;
37895;SDS011;23733;53.254;10.430;2023-02-28T04:14:28;7.20;;;3.50;;
37895;SDS011;23733;53.254;10.430;2023-02-28T04:16:54;8.00;;;3.97;;
37895;SDS011;23733;53.254;10.430;2023-02-28T04:19:20;6.30;;;3.60;;
37895;SDS011;23733;53.254;10.430;2023-02-28T04:21:48;11.60;;;3.40;;
37895;SDS011;23733;53.254;10.430;2023-02-28T04:24:16;6.20;;;3.77;;
37895;SDS011;23733;53.254;10.430;2023-02-28T04:26:46;8.30;;;4.03;;
37895;SDS011;23733;53.254;10.430;2023-02-28T04:29:18;9.00;;;4.20;;
37895;SDS011;23733;53.254;10.430;2023-02-28T04:31:47;8.83;;;4.50;;
37895;SDS011;23733;53.254;10.430;2023-02-28T04:34:13;8.07;;;4.20;;
37895;SDS011;23733;53.254;10.430;2023-02-28T04:36:39;8.57;;;4.33;;
37895;SDS011;23733;53.254;10.430;2023-02-28T04:39:05;6.90;;;3.50;;
37895;SDS011;23733;53.254;10.430;2023-02-28T04:41:35;6.37;;;3.73;;
37895;SDS011;23733;53.254;10.430;2023-02-28T04:44:01;6.70;;;3.50;;
37895;SDS011;23733;53.254;10.430;2023-02-28T04:46:27;6.47;;;3.50;;
37895;SDS011;23733;53.254;10.430;2023-02-28T04:48:53;5.67;;;3.40;;
37895;SDS011;23733;53.254;10.430;2023-02-28T04:51:19;6.60;;;3.80;;
37895;SDS011;23733;53.254;10.430;2023-02-28T04:53:46;8.90;;;3.80;;
37895;SDS011;23733;53.254;10.430;2023-02-28T04:56:13;7.87;;;4.00;;
37895;SDS011;23733;53.254;10.430;2023-02-28T04:58:41;8.40;;;3.77;;
37895;SDS011;23733;53.254;10.430;2023-02-28T05:01:14;7.93;;;3.83;;
37895;SDS011;23733;53.254;10.430;2023-02-28T05:03:43;7.10;;;3.57;;
37895;SDS011;23733;53.254;10.430;2023-02-28T05:06:10;9.70;;;4.17;;
37895;SDS011;23733;53.254;10.430;2023-02-28T05:08:37;7.33;;;3.47;;
37895;SDS011;23733;53.254;10.430;2023-02-28T05:11:05;8.13;;;4.27;;
37895;SDS011;23733;53.254;10.430;2023-02-28T05:13:33;9.33;;;3.90;;
37895;SDS011;23733;53.254;10.430;2023-02-28T05:16:01;7.67;;;3.93;;
37895;SDS011;23733;53.254;10.430;2023-02-28T05:18:27;8.87;;;4.83;;
37895;SDS011;23733;53.254;10.430;2023-02-28T05:20:53;9.33;;;4.27;;
37895;SDS011;23733;53.254;10.430;2023-02-28T05:23:19;9.13;;;4.43;;
37895;SDS011;23733;53.254;10.430;2023-02-28T05:25:47;9.30;;;4.13;;
37895;SDS011;23733;53.254;10.430;2023-02-28T05:28:13;9.30;;;4.73;;
37895;SDS011;23733;53.254;10.430;2023-02-28T05:30:39;9.03;;;4.80;;
37895;SDS011;23733;53.254;10.430;2023-02-28T05:33:05;7.27;;;4.00;;
37895;SDS011;23733;53.254;10.430;2023-02-28T05:35:34;8.57;;;4.23;;
37895;SDS011;23733;53.254;10.430;2023-02-28T05:38:04;8.37;;;4.33;;
37895;SDS011;23733;53.254;10.430;2023-02-28T05:40:33;6.43;;;3.90;;
37895;SDS011;23733;53.254;10.430;2023-02-28T05:43:02;8.40;;;3.70;;
37895;SDS011;23733;53.254;10.430;2023-02-28T05:45:28;6.40;;;3.53;;
37895;SDS011;23733;53.254;10.430;2023-02-28T05:47:54;7.23;;;3.77;;
37895;SDS011;23733;53.254;10.430;2023-02-28T05:50:27;8.37;;;3.93;;
37895;SDS011;23733;53.254;10.430;2023-02-28T05:52:53;8.23;;;4.10;;
37895;SDS011;23733;53.254;10.430;2023-02-28T05:55:19;7.97;;;4.23;;
37895;SDS011;23733;53.254;10.430;2023-02-28T05:57:45;7.70;;;4.57;;
37895;SDS011;23733;53.254;10.430;2023-02-28T06:00:17;9.40;;;4.40;;
37895;SDS011;23733;53.254;10.430;2023-02-28T06:02:43;8.97;;;4.87;;
37895;SDS011;23733;53.254;10.430;2023-02-28T06:05:14;8.07;;;4.40;;
37895;SDS011;23733;53.254;10.430;2023-02-28T06:07:41;7.30;;;4.10;;
37895;SDS011;23733;53.254;10.430;2023-02-28T06:10:09;8.57;;;4.17;;
37895;SDS011;23733;53.254;10.430;2023-02-28T06:12:36;7.23;;;4.30;;
37895;SDS011;23733;53.254;10.430;2023-02-28T06:15:02;8.10;;;4.17;;
37895;SDS011;23733;53.254;10.430;2023-02-28T06:17:28;12.83;;;4.57;;
37895;SDS011;23733;53.254;10.430;2023-02-28T06:20:00;12.50;;;4.70;;
37895;SDS011;23733;53.254;10.430;2023-02-28T06:22:26;10.43;;;5.80;;
37895;SDS011;23733;53.254;10.430;2023-02-28T06:24:52;10.93;;;5.83;;
37895;SDS011;23733;53.254;10.430;2023-02-28T06:27:20;11.67;;;5.27;;
37895;SDS011;23733;53.254;10.430;2023-02-28T06:29:55;9.90;;;4.93;;
37895;SDS011;23733;53.254;10.430;2023-02-28T06:32:21;11.83;;;5.00;;
37895;SDS011;23733;53.254;10.430;2023-02-28T06:34:48;12.10;;;4.47;;
37895;SDS011;23733;53.254;10.430;2023-02-28T06:37:17;10.00;;;4.30;;
37895;SDS011;23733;53.254;10.430;2023-02-28T06:39:43;9.63;;;4.80;;
37895;SDS011;23733;53.254;10.430;2023-02-28T06:42:15;10.17;;;4.70;;
37895;SDS011;23733;53.254;10.430;2023-02-28T06:44:43;8.50;;;4.40;;
37895;SDS011;23733;53.254;10.430;2023-02-28T06:47:09;7.73;;;3.97;;
37895;SDS011;23733;53.254;10.430;2023-02-28T06:49:41;7.50;;;4.30;;
37895;SDS011;23733;53.254;10.430;2023-02-28T06:52:10;9.03;;;4.77;;
37895;SDS011;23733;53.254;10.430;2023-02-28T06:54:52;7.00;;;4.20;;
37895;SDS011;23733;53.254;10.430;2023-02-28T06:57:31;9.63;;;4.73;;
37895;SDS011;23733;53.254;10.430;2023-02-28T06:59:59;6.30;;;4.27;;
37895;SDS011;23733;53.254;10.430;2023-02-28T07:02:28;10.23;;;4.40;;
37895;SDS011;23733;53.254;10.430;2023-02-28T07:05:04;8.13;;;4.50;;
37895;SDS011;23733;53.254;10.430;2023-02-28T07:07:42;12.60;;;5.50;;
37895;SDS011;23733;53.254;10.430;2023-02-28T07:10:32;11.30;;;5.30;;
37895;SDS011;23733;53.254;10.430;2023-02-28T07:13:21;9.83;;;5.10;;
37895;SDS011;23733;53.254;10.430;2023-02-28T07:15:58;11.87;;;6.23;;
37895;SDS011;23733;53.254;10.430;2023-02-28T07:18:29;12.57;;;5.33;;
37895;SDS011;23733;53.254;10.430;2023-02-28T07:20:55;9.90;;;5.27;;
37895;SDS011;23733;53.254;10.430;2023-02-28T07:23:29;12.70;;;5.03;;
37895;SDS011;23733;53.254;10.430;2023-02-28T07:26:27;7.90;;;4.73;;
37895;SDS011;23733;53.254;10.430;2023-02-28T07:28:57;12.33;;;5.00;;
37895;SDS011;23733;53.254;10.430;2023-02-28T07:31:31;9.60;;;4.03;;
37895;SDS011;23733;53.254;10.430;2023-02-28T07:33:57;9.63;;;4.40;;
37895;SDS011;23733;53.254;10.430;2023-02-28T07:37:08;7.57;;;4.30;;
37895;SDS011;23733;53.254;10.430;2023-02-28T07:39:34;9.30;;;4.73;;
37895;SDS011;23733;53.254;10.430;2023-02-28T07:42:06;9.30;;;4.50;;
37895;SDS011;23733;53.254;10.430;2023-02-28T07:44:35;10.50;;;4.83;;
37895;SDS011;23733;53.254;10.430;2023-02-28T07:47:08;7.33;;;4.13;;
37895;SDS011;23733;53.254;10.430;2023-02-28T07:49:38;8.67;;;4.60;;
37895;SDS011;23733;53.254;10.430;2023-02-28T07:52:07;9.30;;;4.83;;
37895;SDS011;23733;53.254;10.430;2023-02-28T07:54:39;8.07;;;4.70;;
37895;SDS011;23733;53.254;10.430;2023-02-28T07:57:11;8.27;;;4.60;;
37895;SDS011;23733;53.254;10.430;2023-02-28T07:59:40;6.83;;;4.27;;
37895;SDS011;23733;53.254;10.430;2023-02-28T08:02:13;9.40;;;4.77;;
37895;SDS011;23733;53.254;10.430;2023-02-28T08:04:40;9.10;;;5.07;;
37895;SDS011;23733;53.254;10.430;2023-02-28T08:07:06;8.50;;;4.63;;
37895;SDS011;23733;53.254;10.430;2023-02-28T08:09:33;11.80;;;4.80;;
37895;SDS011;23733;53.254;10.430;2023-02-28T08:11:59;10.03;;;4.80;;
37895;SDS011;23733;53.254;10.430;2023-02-28T08:14:25;10.17;;;5.03;;
37895;SDS011;23733;53.254;10.430;2023-02-28T08:16:51;10.93;;;5.23;;
37895;SDS011;23733;53.254;10.430;2023-02-28T08:19:18;10.10;;;4.97;;
37895;SDS011;23733;53.254;10.430;2023-02-28T08:21:44;13.37;;;4.97;;
37895;SDS011;23733;53.254;10.430;2023-02-28T08:24:13;11.50;;;4.67;;
37895;SDS011;23733;53.254;10.430;2023-02-28T08:26:39;7.13;;;4.20;;
37895;SDS011;23733;53.254;10.430;2023-02-28T08:29:05;6.60;;;4.10;;
37895;SDS011;23733;53.254;10.430;2023-02-28T08:31:31;10.13;;;4.67;;
37895;SDS011;23733;53.254;10.430;2023-02-28T08:33:57;7.70;;;4.57;;
37895;SDS011;23733;53.254;10.430;2023-02-28T08:36:25;9.03;;;4.67;;
37895;SDS011;23733;53.254;10.430;2023-02-28T08:38:53;8.53;;;4.50;;
37895;SDS011;23733;53.254;10.430;2023-02-28T08:41:19;8.63;;;5.03;;
37895;SDS011;23733;53.254;10.430;2023-02-28T08:43:45;7.97;;;3.80;;
37895;SDS011;23733;53.254;10.430;2023-02-28T08:46:12;8.53;;;4.17;;
37895;SDS011;23733;53.254;10.430;2023-02-28T08:48:39;8.93;;;4.60;;
37895;SDS011;23733;53.254;10.430;2023-02-28T08:51:09;8.70;;;4.80;;
37895;SDS011;23733;53.254;10.430;2023-02-28T08:53:38;13.27;;;5.10;;
37895;SDS011;23733;53.254;10.430;2023-02-28T08:56:08;9.23;;;4.83;;
37895;SDS011;23733;53.254;10.430;2023-02-28T08:58:36;11.67;;;4.97;;
37895;SDS011;23733;53.254;10.430;2023-02-28T09:01:18;8.43;;;4.80;;
37895;SDS011;23733;53.254;10.430;2023-02-28T09:03:46;7.90;;;4.70;;
37895;SDS011;23733;53.254;10.430;2023-02-28T09:06:14;9.37;;;5.20;;
37895;SDS011;23733;53.254;10.430;2023-02-28T09:08:41;9.23;;;5.20;;
37895;SDS011;23733;53.254;10.430;2023-02-28T09:11:08;9.30;;;4.40;;
37895;SDS011;23733;53.254;10.430;2023-02-28T09:13:34;8.10;;;4.40;;
37895;SDS011;23733;53.254;10.430;2023-02-28T09:16:03;8.50;;;4.53;;
37895;SDS011;23733;53.254;10.430;2023-02-28T09:18:30;8.67;;;4.57;;
37895;SDS011;23733;53.254;10.430;2023-02-28T09:20:57;6.03;;;4.10;;
37895;SDS011;23733;53.254;10.430;2023-02-28T09:23:23;8.17;;;4.27;;
37895;SDS011;23733;53.254;10.430;2023-02-28T09:25:51;9.30;;;3.90;;
37895;SDS011;23733;53.254;10.430;2023-02-28T09:28:18;6.33;;;3.40;;
37895;SDS011;23733;53.254;10.430;2023-02-28T09:30:45;6.70;;;3.57;;
37895;SDS011;23733;53.254;10.430;2023-02-28T09:33:12;6.60;;;3.13;;
37895;SDS011;23733;53.254;10.430;2023-02-28T09:35:38;6.67;;;3.00;;
37895;SDS011;23733;53.254;10.430;2023-02-28T09:38:05;6.87;;;2.60;;
37895;SDS011;23733;53.254;10.430;2023-02-28T09:40:35;4.80;;;2.33;;
37895;SDS011;23733;53.254;10.430;2023-02-28T09:43:01;4.43;;;2.10;;
37895;SDS011;23733;53.254;10.430;2023-02-28T09:45:29;3.97;;;2.03;;
37895;SDS011;23733;53.254;10.430;2023-02-28T09:47:59;3.27;;;2.00;;
37895;SDS011;23733;53.254;10.430;2023-02-28T09:50:29;2.87;;;1.80;;
37895;SDS011;23733;53.254;10.430;2023-02-28T09:52:58;4.13;;;1.67;;
37895;SDS011;23733;53.254;10.430;2023-02-28T09:55:37;3.63;;;2.17;;
37895;SDS011;23733;53.254;10.430;2023-02-28T09:58:05;4.07;;;2.00;;
37895;SDS011;23733;53.254;10.430;2023-02-28T10:00:33;6.07;;;1.93;;
37895;SDS011;23733;53.254;10.430;2023-02-28T10:03:03;4.77;;;1.77;;
37895;SDS011;23733;53.254;10.430;2023-02-28T10:05:36;3.80;;;1.63;;
37895;SDS011;23733;53.254;10.430;2023-02-28T10:10:46;1.93;;;0.90;;
37895;SDS011;23733;53.254;10.430;2023-02-28T10:15:55;4.47;;;1.40;;
37895;SDS011;23733;53.254;10.430;2023-02-28T10:18:24;3.10;;;1.20;;
37895;SDS011;23733;53.254;10.430;2023-02-28T10:20:51;1.93;;;1.40;;
37895;SDS011;23733;53.254;10.430;2023-02-28T10:23:22;3.00;;;1.97;;
37895;SDS011;23733;53.254;10.430;2023-02-28T10:25:54;2.30;;;1.30;;
37895;SDS011;23733;53.254;10.430;2023-02-28T10:28:21;2.63;;;1.30;;
37895;SDS011;23733;53.254;10.430;2023-02-28T10:30:50;3.27;;;1.60;;
37895;SDS011;23733;53.254;10.430;2023-02-28T10:35:52;2.97;;;1.60;;
37895;SDS011;23733;53.254;10.430;2023-02-28T10:38:20;3.20;;;1.70;;
37895;SDS011;23733;53.254;10.430;2023-02-28T10:40:46;5.43;;;2.00;;
37895;SDS011;23733;53.254;10.430;2023-02-28T10:45:40;3.93;;;2.13;;
37895;SDS011;23733;53.254;10.430;2023-02-28T10:50:50;4.50;;;1.80;;
37895;SDS011;23733;53.254;10.430;2023-02-28T10:53:24;3.50;;;1.70;;
37895;SDS011;23733;53.254;10.430;2023-02-28T10:55:58;2.60;;;1.50;;
37895;SDS011;23733;53.254;10.430;2023-02-28T11:01:13;2.73;;;1.63;;
37895;SDS011;23733;53.254;10.430;2023-02-28T11:03:40;4.27;;;2.50;;
37895;SDS011;23733;53.254;10.430;2023-02-28T11:06:07;4.80;;;2.60;;
37895;SDS011;23733;53.254;10.430;2023-02-28T11:08:42;5.00;;;2.60;;
37895;SDS011;23733;53.254;10.430;2023-02-28T11:11:10;4.47;;;2.40;;
37895;SDS011;23733;53.254;10.430;2023-02-28T11:13:36;3.10;;;1.83;;
37895;SDS011;23733;53.254;10.430;2023-02-28T11:16:07;3.60;;;1.80;;
37895;SDS011;23733;53.254;10.430;2023-02-28T11:21:04;3.40;;;1.20;;
37895;SDS011;23733;53.254;10.430;2023-02-28T11:23:32;2.47;;;1.30;;
37895;SDS011;23733;53.254;10.430;2023-02-28T11:26:02;6.10;;;1.60;;
37895;SDS011;23733;53.254;10.430;2023-02-28T11:28:30;3.00;;;1.30;;
37895;SDS011;23733;53.254;10.430;2023-02-28T11:33:28;2.33;;;1.23;;
37895;SDS011;23733;53.254;10.430;2023-02-28T11:36:00;1.93;;;1.30;;
37895;SDS011;23733;53.254;10.430;2023-02-28T11:38:27;1.90;;;1.20;;
37895;SDS011;23733;53.254;10.430;2023-02-28T11:40:59;3.27;;;1.40;;
37895;SDS011;23733;53.254;10.430;2023-02-28T11:43:38;1.73;;;1.27;;
37895;SDS011;23733;53.254;10.430;2023-02-28T11:46:17;3.40;;;1.40;;
37895;SDS011;23733;53.254;10.430;2023-02-28T11:56:48;3.63;;;1.47;;
37895;SDS011;23733;53.254;10.430;2023-02-28T12:02:24;4.10;;;1.33;;
37895;SDS011;23733;53.254;10.430;2023-02-28T12:04:52;2.17;;;1.27;;
37895;SDS011;23733;53.254;10.430;2023-02-28T12:08:08;2.87;;;1.20;;
37895;SDS011;23733;53.254;10.430;2023-02-28T12:15:51;2.70;;;1.30;;
37895;SDS011;23733;53.254;10.430;2023-02-28T12:21:09;1.93;;;1.20;;
37895;SDS011;23733;53.254;10.430;2023-02-28T12:28:42;3.83;;;1.40;;
37895;SDS011;23733;53.254;10.430;2023-02-28T12:31:20;1.80;;;1.10;;
37895;SDS011;23733;53.254;10.430;2023-02-28T12:33:55;5.00;;;1.20;;
37895;SDS011;23733;53.254;10.430;2023-02-28T12:39:22;2.47;;;1.30;;
37895;SDS011;23733;53.254;10.430;2023-02-28T12:42:05;1.73;;;1.20;;
37895;SDS011;23733;53.254;10.430;2023-02-28T12:44:35;2.43;;;1.50;;
37895;SDS011;23733;53.254;10.430;2023-02-28T12:47:08;3.50;;;1.20;;
37895;SDS011;23733;53.254;10.430;2023-02-28T12:49:41;2.67;;;1.40;;
37895;SDS011;23733;53.254;10.430;2023-02-28T12:52:19;1.90;;;1.20;;
37895;SDS011;23733;53.254;10.430;2023-02-28T13:00:35;3.67;;;1.20;;
37895;SDS011;23733;53.254;10.430;2023-02-28T13:03:16;1.83;;;1.30;;
37895;SDS011;23733;53.254;10.430;2023-02-28T13:11:07;2.70;;;1.47;;
37895;SDS011;23733;53.254;10.430;2023-02-28T13:13:48;1.60;;;1.33;;
37895;SDS011;23733;53.254;10.430;2023-02-28T13:16:22;2.20;;;1.20;;
37895;SDS011;23733;53.254;10.430;2023-02-28T13:18:49;2.13;;;1.50;;
37895;SDS011;23733;53.254;10.430;2023-02-28T13:21:26;1.60;;;1.13;;
37895;SDS011;23733;53.254;10.430;2023-02-28T13:34:22;3.17;;;1.70;;
37895;SDS011;23733;53.254;10.430;2023-02-28T13:37:42;2.47;;;1.77;;
37895;SDS011;23733;53.254;10.430;2023-02-28T13:47:52;4.23;;;2.03;;
37895;SDS011;23733;53.254;10.430;2023-02-28T13:50:34;2.47;;;1.50;;
37895;SDS011;23733;53.254;10.430;2023-02-28T13:58:32;1.73;;;1.20;;
37895;SDS011;23733;53.254;10.430;2023-02-28T14:06:29;2.10;;;1.30;;
37895;SDS011;23733;53.254;10.430;2023-02-28T14:09:01;1.63;;;1.10;;
37895;SDS011;23733;53.254;10.430;2023-02-28T14:11:36;3.03;;;1.20;;
37895;SDS011;23733;53.254;10.430;2023-02-28T14:14:04;3.43;;;1.33;;
37895;SDS011;23733;53.254;10.430;2023-02-28T14:16:40;2.50;;;1.27;;
37895;SDS011;23733;53.254;10.430;2023-02-28T14:19:12;1.80;;;1.20;;
37895;SDS011;23733;53.254;10.430;2023-02-28T14:21:40;2.73;;;1.43;;
37895;SDS011;23733;53.254;10.430;2023-02-28T14:32:02;2.63;;;1.27;;
37895;SDS011;23733;53.254;10.430;2023-02-28T14:34:37;2.80;;;1.20;;
37895;SDS011;23733;53.254;10.430;2023-02-28T14:37:08;2.23;;;1.10;;
37895;SDS011;23733;53.254;10.430;2023-02-28T14:39:40;2.30;;;1.30;;
37895;SDS011;23733;53.254;10.430;2023-02-28T14:42:28;6.07;;;1.30;;
37895;SDS011;23733;53.254;10.430;2023-02-28T14:44:54;3.87;;;1.50;;
37895;SDS011;23733;53.254;10.430;2023-02-28T14:47:30;2.10;;;1.30;;
37895;SDS011;23733;53.254;10.430;2023-02-28T14:49:58;2.90;;;1.30;;
37895;SDS011;23733;53.254;10.430;2023-02-28T14:55:18;2.90;;;1.23;;
37895;SDS011;23733;53.254;10.430;2023-02-28T14:57:55;2.03;;;1.17;;
37895;SDS011;23733;53.254;10.430;2023-02-28T15:00:23;1.53;;;1.00;;
37895;SDS011;23733;53.254;10.430;2023-02-28T15:02:53;1.43;;;1.17;;
37895;SDS011;23733;53.254;10.430;2023-02-28T15:08:20;3.10;;;1.10;;
37895;SDS011;23733;53.254;10.430;2023-02-28T15:13:26;1.83;;;1.10;;
37895;SDS011;23733;53.254;10.430;2023-02-28T15:16:04;4.27;;;1.30;;
37895;SDS011;23733;53.254;10.430;2023-02-28T15:21:06;1.53;;;1.10;;
37895;SDS011;23733;53.254;10.430;2023-02-28T15:23:36;1.57;;;1.00;;
37895;SDS011;23733;53.254;10.430;2023-02-28T15:26:13;3.00;;;1.23;;
37895;SDS011;23733;53.254;10.430;2023-02-28T15:28:48;1.23;;;0.97;;
37895;SDS011;23733;53.254;10.430;2023-02-28T15:31:20;2.27;;;1.20;;
37895;SDS011;23733;53.254;10.430;2023-02-28T15:36:46;4.00;;;1.20;;
37895;SDS011;23733;53.254;10.430;2023-02-28T15:39:23;1.90;;;1.20;;
37895;SDS011;23733;53.254;10.430;2023-02-28T15:42:12;1.20;;;1.00;;
37895;SDS011;23733;53.254;10.430;2023-02-28T15:44:39;2.07;;;1.20;;
37895;SDS011;23733;53.254;10.430;2023-02-28T15:50:10;1.60;;;1.10;;
37895;SDS011;23733;53.254;10.430;2023-02-28T15:52:42;2.33;;;1.10;;
37895;SDS011;23733;53.254;10.430;2023-02-28T15:57:54;5.00;;;1.53;;
37895;SDS011;23733;53.254;10.430;2023-02-28T16:00:28;1.93;;;1.20;;
37895;SDS011;23733;53.254;10.430;2023-02-28T16:03:00;3.63;;;1.40;;
37895;SDS011;23733;53.254;10.430;2023-02-28T16:05:30;2.90;;;1.23;;
37895;SDS011;23733;53.254;10.430;2023-02-28T16:08:11;3.10;;;1.27;;
37895;SDS011;23733;53.254;10.430;2023-02-28T16:10:54;1.87;;;1.20;;
37895;SDS011;23733;53.254;10.430;2023-02-28T16:13:20;4.67;;;1.70;;
37895;SDS011;23733;53.254;10.430;2023-02-28T16:15:47;1.50;;;1.20;;
37895;SDS011;23733;53.254;10.430;2023-02-28T16:18:18;3.63;;;1.37;;
37895;SDS011;23733;53.254;10.430;2023-02-28T16:20:50;1.80;;;1.30;;
37895;SDS011;23733;53.254;10.430;2023-02-28T16:23:16;2.50;;;1.40;;
37895;SDS011;23733;53.254;10.430;2023-02-28T16:25:51;2.20;;;1.10;;
37895;SDS011;23733;53.254;10.430;2023-02-28T16:28:24;2.40;;;1.30;;
37895;SDS011;23733;53.254;10.430;2023-02-28T16:31:18;2.93;;;1.20;;
37895;SDS011;23733;53.254;10.430;2023-02-28T16:33:47;2.30;;;1.37;;
37895;SDS011;23733;53.254;10.430;2023-02-28T16:36:23;3.63;;;1.30;;
37895;SDS011;23733;53.254;10.430;2023-02-28T16:39:30;1.70;;;1.20;;
37895;SDS011;23733;53.254;10.430;2023-02-28T16:41:58;2.17;;;1.10;;
37895;SDS011;23733;53.254;10.430;2023-02-28T16:45:18;3.93;;;1.20;;
37895;SDS011;23733;53.254;10.430;2023-02-28T16:47:54;3.70;;;1.27;;
37895;SDS011;23733;53.254;10.430;2023-02-28T16:50:57;2.70;;;1.20;;
37895;SDS011;23733;53.254;10.430;2023-02-28T16:54:16;5.00;;;1.30;;
37895;SDS011;23733;53.254;10.430;2023-02-28T16:59:59;6.00;;;1.57;;
37895;SDS011;23733;53.254;10.430;2023-02-28T17:02:25;4.83;;;1.30;;
37895;SDS011;23733;53.254;10.430;2023-02-28T17:04:58;5.87;;;1.60;;
37895;SDS011;23733;53.254;10.430;2023-02-28T17:07:33;4.00;;;1.40;;
37895;SDS011;23733;53.254;10.430;2023-02-28T17:10:33;4.50;;;1.70;;
37895;SDS011;23733;53.254;10.430;2023-02-28T17:13:14;6.50;;;1.67;;
37895;SDS011;23733;53.254;10.430;2023-02-28T17:16:22;6.20;;;1.73;;
37895;SDS011;23733;53.254;10.430;2023-02-28T17:19:16;5.90;;;2.87;;